createdAt,value
2018-05-03T00:00:44.780Z,16.82
2018-05-03T00:03:14.417Z,16.81
2018-05-03T00:05:44.046Z,16.79
2018-05-03T00:08:13.672Z,16.75
2018-05-03T00:10:43.310Z,16.73
2018-05-03T00:13:12.987Z,16.72
2018-05-03T00:15:42.616Z,16.74
2018-05-03T00:18:12.249Z,16.75
2018-05-03T00:20:41.885Z,16.76
2018-05-03T00:23:11.515Z,16.73
2018-05-03T00:25:41.196Z,16.69
2018-05-03T00:28:10.840Z,16.66
2018-05-03T00:30:40.497Z,16.59
2018-05-03T00:33:10.137Z,16.59
2018-05-03T00:35:39.766Z,16.55
2018-05-03T00:38:09.476Z,16.57
2018-05-03T00:40:39.095Z,16.47
2018-05-03T00:43:08.735Z,16.41
2018-05-03T00:45:38.086Z,16.36
2018-05-03T00:48:07.725Z,16.23
2018-05-03T00:50:37.406Z,16.28
2018-05-03T00:53:07.035Z,16.27
2018-05-03T00:55:36.664Z,16.17
2018-05-03T00:58:06.304Z,16.09
2018-05-03T01:00:36.028Z,15.96
2018-05-03T01:03:05.086Z,15.85
2018-05-03T01:05:34.712Z,15.70
2018-05-03T01:08:04.377Z,15.62
2018-05-03T01:10:34.018Z,15.53
2018-05-03T01:13:03.687Z,15.48
2018-05-03T01:15:33.373Z,15.53
2018-05-03T01:18:03.006Z,15.45
2018-05-03T01:20:32.392Z,15.50
2018-05-03T01:23:02.040Z,15.55
2018-05-03T01:25:31.683Z,15.47
2018-05-03T01:28:01.370Z,15.36
2018-05-03T01:30:31.005Z,15.27
2018-05-03T01:33:00.641Z,15.22
2018-05-03T01:35:41.149Z,15.19
2018-05-03T01:38:10.509Z,15.20
2018-05-03T01:40:40.192Z,15.29
2018-05-03T01:43:09.835Z,15.36
2018-05-03T01:45:39.663Z,15.40
2018-05-03T01:48:09.293Z,15.55
2018-05-03T01:50:38.928Z,15.63
2018-05-03T01:53:08.591Z,15.65
2018-05-03T01:55:38.220Z,15.65
2018-05-03T01:58:07.856Z,15.74
2018-05-03T02:00:37.212Z,15.83
2018-05-03T02:03:06.598Z,15.96
2018-05-03T02:05:36.271Z,15.94
2018-05-03T02:08:05.921Z,15.88
2018-05-03T02:10:35.545Z,16.04
2018-05-03T02:13:05.180Z,16.19
2018-05-03T02:15:34.815Z,16.19
2018-05-03T02:18:04.495Z,16.34
2018-05-03T02:20:34.119Z,16.36
2018-05-03T02:23:03.750Z,16.45
2018-05-03T02:25:33.382Z,16.54
2018-05-03T02:28:03.027Z,16.60
2018-05-03T02:30:32.791Z,16.63
2018-05-03T02:33:02.444Z,16.54
2018-05-03T02:35:32.088Z,16.54
2018-05-03T02:38:01.708Z,16.43
2018-05-03T02:40:31.379Z,16.33
2018-05-03T02:43:01.061Z,16.27
2018-05-03T02:45:30.694Z,16.18
2018-05-03T02:48:00.336Z,16.09
2018-05-03T02:50:29.721Z,15.98
2018-05-03T02:52:59.346Z,15.99
2018-05-03T02:55:29.030Z,15.95
2018-05-03T02:58:15.228Z,15.88
2018-05-03T03:04:22.459Z,15.64
2018-05-03T03:07:08.504Z,15.56
2018-05-03T03:13:34.452Z,15.39
2018-05-03T03:16:20.526Z,15.43
2018-05-03T03:19:06.527Z,15.49
2018-05-03T03:24:59.827Z,15.63
2018-05-03T03:27:56.812Z,15.61
2018-05-03T03:30:44.388Z,15.58
2018-05-03T03:33:24.963Z,15.66
2018-05-03T03:36:05.498Z,15.65
2018-05-03T03:38:46.056Z,15.59
2018-05-03T03:41:26.585Z,15.59
2018-05-03T03:44:07.129Z,15.61
2018-05-03T03:46:36.485Z,15.58
2018-05-03T03:49:05.879Z,15.55
2018-05-03T03:51:35.517Z,15.47
2018-05-03T03:54:05.141Z,15.53
2018-05-03T03:56:34.771Z,15.56
2018-05-03T03:59:04.417Z,15.50
2018-05-03T04:01:34.106Z,15.50
2018-05-03T04:04:03.731Z,15.52
2018-05-03T04:06:33.369Z,15.54
2018-05-03T04:09:02.993Z,15.78
2018-05-03T04:11:32.620Z,15.93
2018-05-03T04:14:02.311Z,16.04
2018-05-03T04:16:31.938Z,16.19
2018-05-03T04:19:12.942Z,16.34
2018-05-03T04:21:53.636Z,16.52
2018-05-03T04:24:34.211Z,16.61
2018-05-03T04:27:03.583Z,16.78
2018-05-03T04:29:33.216Z,16.91
2018-05-03T04:32:02.862Z,16.99
2018-05-03T04:34:32.497Z,17.09
2018-05-03T04:37:02.398Z,17.30
2018-05-03T04:39:32.019Z,17.60
2018-05-03T04:42:01.669Z,17.96
2018-05-03T04:44:31.301Z,18.20
2018-05-03T04:47:00.936Z,18.68
2018-05-03T04:49:30.620Z,19.12
2018-05-03T04:52:00.255Z,19.56
2018-05-03T04:54:29.899Z,19.90
2018-05-03T04:56:59.537Z,20.25
2018-05-03T04:59:29.169Z,20.55
2018-05-03T05:01:58.857Z,20.94
2018-05-03T05:04:28.493Z,21.25
2018-05-03T05:06:58.159Z,21.51
2018-05-03T05:09:27.794Z,21.85
2018-05-03T05:11:57.435Z,22.25
2018-05-03T05:14:27.113Z,22.52
2018-05-03T05:16:56.749Z,23.05
2018-05-03T05:19:26.393Z,23.84
2018-05-03T05:21:56.025Z,24.96
2018-05-03T05:24:25.650Z,26.34
2018-05-03T05:26:55.919Z,27.84
2018-05-03T05:29:26.152Z,29.24
2018-05-03T05:31:56.412Z,30.31
2018-05-03T05:34:26.634Z,30.39
2018-05-03T05:36:56.980Z,30.73
2018-05-03T05:39:27.207Z,31.23
2018-05-03T05:41:57.468Z,31.12
2018-05-03T05:44:27.683Z,30.04
2018-05-03T05:46:57.939Z,28.42
2018-05-03T05:49:28.165Z,27.15
2018-05-03T05:51:58.438Z,26.04
2018-05-03T05:54:28.702Z,25.34
2018-05-03T05:56:58.339Z,24.91
2018-05-03T05:59:27.734Z,24.71
2018-05-03T06:01:57.374Z,24.47
2018-05-03T06:04:27.005Z,24.42
2018-05-03T06:06:56.400Z,24.55
2018-05-03T06:09:25.774Z,24.49
2018-05-03T06:11:55.406Z,24.40
2018-05-03T06:14:25.035Z,24.73
2018-05-03T06:16:54.655Z,24.95
2018-05-03T06:19:24.356Z,25.07
2018-05-03T06:21:53.992Z,25.50
2018-05-03T06:24:23.397Z,26.20
2018-05-03T06:26:53.621Z,27.53
2018-05-03T06:29:23.841Z,28.58
2018-05-03T06:31:53.513Z,28.57
2018-05-03T06:34:23.187Z,28.17
2018-05-03T06:36:53.423Z,27.70
2018-05-03T06:39:23.646Z,27.03
2018-05-03T06:41:53.883Z,26.39
2018-05-03T06:44:24.148Z,25.93
2018-05-03T06:46:53.504Z,25.79
2018-05-03T06:49:23.149Z,25.72
2018-05-03T06:51:53.403Z,26.19
2018-05-03T06:54:23.626Z,27.13
2018-05-03T06:56:53.897Z,29.01
2018-05-03T06:59:24.126Z,31.06
2018-05-03T07:01:54.383Z,32.92
2018-05-03T07:04:24.636Z,34.22
2018-05-03T07:06:55.111Z,35.22
2018-05-03T07:09:25.334Z,36.15
2018-05-03T07:11:55.593Z,36.70
2018-05-03T07:14:25.837Z,37.36
2018-05-03T07:16:56.045Z,37.78
2018-05-03T07:19:26.287Z,38.10
2018-05-03T07:21:56.500Z,38.98
2018-05-03T07:24:26.742Z,39.55
2018-05-03T07:26:56.965Z,39.79
2018-05-03T07:29:27.228Z,39.85
2018-05-03T07:31:57.700Z,40.34
2018-05-03T07:34:27.911Z,39.73
2018-05-03T07:36:58.214Z,39.75
2018-05-03T07:39:28.426Z,40.02
2018-05-03T07:41:58.669Z,40.24
2018-05-03T07:44:29.308Z,40.54
2018-05-03T07:46:59.533Z,40.96
2018-05-03T07:49:29.790Z,40.93
2018-05-03T07:52:00.016Z,40.98
2018-05-03T07:54:30.280Z,41.25
2018-05-03T07:57:00.503Z,41.12
2018-05-03T07:59:30.735Z,40.05
2018-05-03T08:02:00.976Z,39.88
2018-05-03T08:04:31.396Z,39.59
2018-05-03T08:07:01.665Z,39.99
2018-05-03T08:09:31.882Z,40.64
2018-05-03T08:12:02.135Z,41.28
2018-05-03T08:14:32.578Z,41.53
2018-05-03T08:17:02.919Z,41.16
2018-05-03T08:19:33.298Z,40.96
2018-05-03T08:22:03.541Z,41.55
2018-05-03T08:24:33.532Z,42.08
2018-05-03T08:27:03.759Z,42.52
2018-05-03T08:29:34.016Z,43.60
2018-05-03T08:32:04.223Z,44.17
2018-05-03T08:34:34.203Z,44.25
2018-05-03T08:37:04.465Z,44.07
2018-05-03T08:39:34.679Z,43.25
2018-05-03T08:42:04.587Z,42.30
2018-05-03T08:44:34.813Z,41.64
2018-05-03T08:47:05.030Z,41.60
2018-05-03T08:49:35.297Z,42.18
2018-05-03T08:52:04.984Z,42.37
2018-05-03T08:54:35.213Z,42.51
2018-05-03T08:57:05.216Z,42.27
2018-05-03T08:59:35.440Z,41.55
2018-05-03T09:02:05.513Z,41.88
2018-05-03T09:04:35.733Z,40.58
2018-05-03T09:07:05.741Z,39.04
2018-05-03T09:09:36.093Z,37.53
2018-05-03T09:12:06.305Z,36.39
2018-05-03T09:14:36.564Z,35.58
2018-05-03T09:17:06.781Z,34.76
2018-05-03T09:19:37.039Z,34.11
2018-05-03T09:22:07.340Z,33.52
2018-05-03T09:24:37.573Z,33.12
2018-05-03T09:27:07.565Z,32.77
2018-05-03T09:29:37.773Z,32.71
2018-05-03T09:32:08.053Z,32.78
2018-05-03T09:34:38.256Z,32.65
2018-05-03T09:37:08.149Z,32.46
2018-05-03T09:39:39.483Z,32.20
2018-05-03T09:42:09.692Z,31.96
2018-05-03T09:44:39.943Z,31.78
2018-05-03T09:47:10.155Z,31.65
2018-05-03T09:49:40.398Z,31.44
2018-05-03T09:52:10.598Z,31.22
2018-05-03T09:54:40.556Z,31.07
2018-05-03T09:57:10.758Z,31.05
2018-05-03T09:59:40.960Z,31.05
2018-05-03T10:02:11.208Z,30.87
2018-05-03T10:04:41.428Z,30.86
2018-05-03T10:07:11.675Z,30.81
2018-05-03T10:09:41.902Z,30.83
2018-05-03T10:12:12.128Z,30.88
2018-05-03T10:14:42.405Z,30.83
2018-05-03T10:17:12.831Z,30.72
2018-05-03T10:19:43.090Z,30.79
2018-05-03T10:22:13.308Z,30.82
2018-05-03T10:24:43.549Z,30.66
2018-05-03T10:27:13.770Z,30.52
2018-05-03T10:29:43.376Z,30.29
2018-05-03T10:32:13.658Z,30.30
2018-05-03T10:34:43.962Z,30.43
2018-05-03T10:37:14.229Z,30.45
2018-05-03T10:39:44.696Z,30.44
2018-05-03T10:42:14.660Z,30.40
2018-05-03T10:44:45.098Z,30.46
2018-05-03T10:47:15.352Z,30.55
2018-05-03T10:49:45.617Z,30.62
2018-05-03T10:52:15.854Z,30.70
2018-05-03T10:54:46.318Z,30.73
2018-05-03T10:57:16.576Z,30.73
2018-05-03T10:59:46.818Z,30.66
2018-05-03T11:02:17.034Z,30.44
2018-05-03T11:04:47.280Z,30.22
2018-05-03T11:07:17.564Z,30.22
2018-05-03T11:09:47.833Z,30.24
2018-05-03T11:12:18.162Z,30.25
2018-05-03T11:14:48.444Z,30.24
2018-05-03T11:17:18.711Z,30.07
2018-05-03T11:19:48.922Z,29.93
2018-05-03T11:22:19.141Z,29.92
2018-05-03T11:24:49.407Z,29.97
2018-05-03T11:27:19.674Z,30.01
2018-05-03T11:29:49.985Z,30.05
2018-05-03T11:32:20.691Z,30.05
2018-05-03T11:34:50.920Z,30.02
2018-05-03T11:37:21.265Z,29.95
2018-05-03T11:39:51.494Z,29.95
2018-05-03T11:42:21.738Z,29.93
2018-05-03T11:44:51.960Z,29.92
2018-05-03T11:47:22.174Z,29.91
2018-05-03T11:49:52.484Z,29.90
2018-05-03T11:52:22.706Z,29.93
2018-05-03T11:54:52.934Z,29.90
2018-05-03T11:57:23.183Z,29.81
2018-05-03T11:59:53.397Z,29.68
2018-05-03T12:02:23.685Z,29.48
2018-05-03T12:04:53.879Z,29.36
2018-05-03T12:07:24.141Z,29.27
2018-05-03T12:09:54.351Z,29.28
2018-05-03T12:12:24.572Z,29.42
2018-05-03T12:14:54.772Z,29.55
2018-05-03T12:17:24.972Z,29.55
2018-05-03T12:19:55.238Z,29.42
2018-05-03T12:22:25.503Z,29.25
2018-05-03T12:24:55.736Z,28.96
2018-05-03T12:27:25.951Z,28.83
2018-05-03T12:29:56.169Z,28.74
2018-05-03T12:32:26.469Z,28.58
2018-05-03T12:34:56.765Z,28.55
2018-05-03T12:37:27.200Z,28.46
2018-05-03T12:39:57.407Z,28.45
2018-05-03T12:42:27.640Z,28.47
2018-05-03T12:44:57.839Z,28.47
2018-05-03T12:47:28.091Z,28.53
2018-05-03T12:49:58.338Z,28.73
2018-05-03T12:52:28.536Z,28.82
2018-05-03T12:54:58.771Z,28.84
2018-05-03T12:57:28.972Z,29.05
2018-05-03T13:00:00.039Z,29.24
2018-05-03T13:02:30.292Z,29.34
2018-05-03T13:05:00.517Z,29.25
2018-05-03T13:07:30.803Z,29.09
2018-05-03T13:10:01.003Z,28.90
2018-05-03T13:12:31.221Z,28.84
2018-05-03T13:15:01.478Z,28.78
2018-05-03T13:17:31.685Z,28.68
2018-05-03T13:20:01.941Z,28.61
2018-05-03T13:22:32.128Z,28.64
2018-05-03T13:25:02.431Z,28.66
2018-05-03T13:27:32.410Z,28.64
2018-05-03T13:30:02.667Z,28.65
2018-05-03T13:32:32.608Z,28.71
2018-05-03T13:35:02.817Z,28.73
2018-05-03T13:37:33.087Z,28.67
2018-05-03T13:40:03.308Z,28.61
2018-05-03T13:42:33.576Z,28.59
2018-05-03T13:45:03.559Z,28.55
2018-05-03T13:47:33.802Z,28.59
2018-05-03T13:50:04.236Z,28.64
2018-05-03T13:52:34.460Z,28.78
2018-05-03T13:55:04.347Z,28.80
2018-05-03T13:57:34.611Z,28.66
2018-05-03T14:00:04.281Z,28.57
2018-05-03T14:02:33.957Z,28.39
2018-05-03T14:05:03.907Z,28.25
2018-05-03T14:07:33.887Z,28.22
2018-05-03T14:10:04.044Z,28.12
2018-05-03T14:12:33.727Z,28.06
2018-05-03T14:15:03.387Z,27.88
2018-05-03T14:17:33.665Z,27.70
2018-05-03T14:20:03.101Z,27.69
2018-05-03T14:22:33.331Z,27.75
2018-05-03T14:25:02.975Z,27.75
2018-05-03T14:27:32.662Z,27.65
2018-05-03T14:30:02.302Z,27.37
2018-05-03T14:32:31.969Z,27.11
2018-05-03T14:35:01.597Z,26.77
2018-05-03T14:37:30.984Z,26.43
2018-05-03T14:40:00.672Z,26.13
2018-05-03T14:42:30.313Z,25.88
2018-05-03T14:44:59.952Z,25.58
2018-05-03T14:47:29.582Z,25.20
2018-05-03T14:49:59.219Z,24.86
2018-05-03T14:52:28.904Z,24.65
2018-05-03T14:54:58.541Z,24.41
2018-05-03T14:57:28.194Z,24.27
2018-05-03T14:59:57.836Z,24.12
2018-05-03T15:02:27.473Z,24.01
2018-05-03T15:04:57.132Z,23.99
2018-05-03T15:07:26.776Z,23.94
2018-05-03T15:09:56.400Z,23.80
2018-05-03T15:12:26.031Z,23.25
2018-05-03T15:14:55.377Z,22.41
2018-05-03T15:17:25.076Z,21.01
2018-05-03T15:19:54.716Z,19.53
2018-05-03T15:22:24.071Z,18.70
2018-05-03T15:24:53.700Z,18.33
2018-05-03T15:27:23.337Z,18.29
2018-05-03T15:29:53.025Z,18.46
2018-05-03T15:32:22.677Z,18.74
2018-05-03T15:34:54.012Z,19.05
2018-05-03T15:37:23.414Z,19.28
2018-05-03T15:39:53.064Z,19.52
2018-05-03T15:42:22.687Z,19.73
2018-05-03T15:44:52.306Z,19.92
2018-05-03T15:47:22.021Z,20.09
2018-05-03T15:49:51.670Z,20.25
2018-05-03T15:52:21.303Z,20.36
2018-05-03T15:54:50.946Z,20.48
2018-05-03T15:57:20.578Z,20.63
2018-05-03T15:59:50.019Z,20.73
2018-05-03T16:02:19.660Z,20.78
2018-05-03T16:04:49.310Z,20.77
2018-05-03T16:07:18.958Z,20.74
2018-05-03T16:09:48.582Z,20.71
2018-05-03T16:12:18.263Z,20.69
2018-05-03T16:14:47.972Z,20.66
2018-05-03T16:17:17.638Z,20.62
2018-05-03T16:19:47.280Z,20.55
2018-05-03T16:22:16.930Z,20.52
2018-05-03T16:24:46.659Z,20.54
2018-05-03T16:27:16.109Z,20.49
2018-05-03T16:29:45.982Z,20.40
2018-05-03T16:32:15.620Z,20.29
2018-05-03T16:34:45.301Z,20.14
2018-05-03T16:37:14.976Z,19.98
2018-05-03T16:39:44.619Z,19.79
2018-05-03T16:42:14.281Z,19.67
2018-05-03T16:44:43.913Z,19.57
2018-05-03T16:47:13.557Z,19.48
2018-05-03T16:49:43.230Z,19.31
2018-05-03T16:52:12.877Z,19.19
2018-05-03T16:54:42.506Z,19.13
2018-05-03T16:57:12.149Z,19.08
2018-05-03T16:59:41.786Z,19.03
2018-05-03T17:02:11.486Z,19.01
2018-05-03T17:04:41.177Z,19.06
2018-05-03T17:07:10.821Z,19.08
2018-05-03T17:09:40.461Z,19.09
2018-05-03T17:12:10.097Z,19.15
2018-05-03T17:14:39.866Z,19.19
2018-05-03T17:17:09.488Z,19.22
2018-05-03T17:19:39.153Z,19.20
2018-05-03T17:22:08.797Z,19.22
2018-05-03T17:24:38.457Z,19.22
2018-05-03T17:27:08.130Z,19.22
2018-05-03T17:29:37.750Z,19.12
2018-05-03T17:32:07.392Z,19.04
2018-05-03T17:34:37.043Z,18.98
2018-05-03T17:37:06.698Z,18.88
2018-05-03T17:39:36.139Z,18.83
2018-05-03T17:42:05.642Z,18.79
2018-05-03T17:44:35.292Z,18.84
2018-05-03T17:47:04.944Z,18.83
2018-05-03T17:49:34.576Z,18.78
2018-05-03T17:52:04.271Z,18.74
2018-05-03T17:54:33.912Z,18.72
2018-05-03T17:57:03.563Z,18.70
2018-05-03T17:59:33.214Z,18.68
2018-05-03T18:02:02.861Z,18.66
2018-05-03T18:04:32.542Z,18.60
2018-05-03T18:07:02.196Z,18.52
2018-05-03T18:09:31.837Z,18.45
2018-05-03T18:12:01.504Z,18.36
2018-05-03T18:14:31.144Z,18.25
2018-05-03T18:17:00.822Z,18.16
2018-05-03T18:19:30.529Z,18.08
2018-05-03T18:22:00.199Z,18.04
2018-05-03T18:24:29.885Z,17.91
2018-05-03T18:26:59.529Z,17.85
2018-05-03T18:29:28.981Z,17.76
2018-05-03T18:31:58.637Z,17.64
2018-05-03T18:34:28.288Z,17.56
2018-05-03T18:36:57.938Z,17.47
2018-05-03T18:39:27.558Z,17.45
2018-05-03T18:41:57.223Z,17.32
2018-05-03T18:44:26.871Z,17.19
2018-05-03T18:46:56.375Z,17.13
2018-05-03T18:49:26.026Z,17.03
2018-05-03T18:51:55.860Z,16.96
2018-05-03T18:54:25.318Z,16.88
2018-05-03T18:56:54.942Z,16.82
2018-05-03T18:59:24.601Z,16.81
2018-05-03T19:01:54.218Z,16.76
2018-05-03T19:04:23.862Z,16.72
2018-05-03T19:06:53.535Z,16.75
2018-05-03T19:09:23.172Z,16.63
2018-05-03T19:11:52.844Z,16.52
2018-05-03T19:14:22.711Z,16.51
2018-05-03T19:16:52.338Z,16.36
2018-05-03T19:19:22.015Z,16.24
2018-05-03T19:21:51.665Z,16.19
2018-05-03T19:24:21.066Z,16.18
2018-05-03T19:26:50.715Z,16.12
2018-05-03T19:29:20.442Z,16.05
2018-05-03T19:31:50.264Z,15.94
2018-05-03T19:34:19.920Z,15.99
2018-05-03T19:36:49.599Z,15.95
2018-05-03T19:39:19.237Z,15.86
2018-05-03T19:41:48.870Z,15.79
2018-05-03T19:44:18.491Z,15.88
2018-05-03T19:46:48.114Z,15.93
2018-05-03T19:49:17.743Z,16.02
2018-05-03T19:51:47.384Z,16.13
2018-05-03T19:54:17.056Z,16.16
2018-05-03T19:56:46.688Z,16.10
2018-05-03T19:59:16.378Z,16.03
2018-05-03T20:01:46.049Z,15.94
2018-05-03T20:04:15.689Z,16.07
2018-05-03T20:06:45.318Z,16.06
2018-05-03T20:09:14.958Z,16.15
2018-05-03T20:11:44.583Z,16.18
2018-05-03T20:14:14.248Z,16.09
2018-05-03T20:16:43.931Z,16.00
2018-05-03T20:19:13.563Z,16.03
2018-05-03T20:21:43.195Z,16.08
2018-05-03T20:24:12.837Z,16.11
2018-05-03T20:26:42.483Z,16.12
2018-05-03T20:29:12.136Z,16.12
2018-05-03T20:31:41.775Z,16.21
2018-05-03T20:34:11.455Z,16.35
2018-05-03T20:36:41.098Z,16.37
2018-05-03T20:39:10.739Z,16.45
2018-05-03T20:41:40.376Z,16.51
2018-05-03T20:44:10.000Z,16.50
2018-05-03T20:46:39.645Z,16.48
2018-05-03T20:49:09.279Z,16.44
2018-05-03T20:51:38.902Z,16.45
2018-05-03T20:54:08.572Z,16.54
2018-05-03T20:56:39.052Z,16.60
2018-05-03T20:59:08.868Z,16.56
2018-05-03T21:01:38.530Z,16.55
2018-05-03T21:04:08.156Z,16.57
2018-05-03T21:06:37.808Z,16.54
2018-05-03T21:09:07.435Z,16.48
2018-05-03T21:11:36.902Z,16.50
2018-05-03T21:14:06.570Z,16.59
2018-05-03T21:16:36.236Z,16.68
2018-05-03T21:19:05.887Z,16.75
2018-05-03T21:21:35.530Z,16.79
2018-05-03T21:24:05.159Z,16.78
2018-05-03T21:26:34.845Z,16.78
2018-05-03T21:29:04.475Z,16.83
2018-05-03T21:31:34.135Z,16.84
2018-05-03T21:34:03.801Z,16.78
2018-05-03T21:36:33.225Z,16.79
2018-05-03T21:39:02.861Z,16.82
2018-05-03T21:41:32.520Z,16.85
2018-05-03T21:44:02.178Z,16.78
2018-05-03T21:46:31.876Z,16.85
2018-05-03T21:49:01.521Z,16.92
2018-05-03T21:51:31.220Z,16.96
2018-05-03T21:54:00.859Z,16.95
2018-05-03T21:56:30.488Z,16.89
2018-05-03T21:59:00.138Z,16.87
2018-05-03T22:01:29.805Z,16.84
2018-05-03T22:03:59.341Z,16.75
2018-05-03T22:06:29.142Z,16.67
2018-05-03T22:08:58.791Z,16.61
2018-05-03T22:11:28.441Z,16.56
2018-05-03T22:13:58.121Z,16.53
2018-05-03T22:16:27.674Z,16.50
2018-05-03T22:18:57.315Z,16.45
2018-05-03T22:21:26.996Z,16.37
2018-05-03T22:23:56.633Z,16.24
2018-05-03T22:26:26.287Z,16.14
2018-05-03T22:28:59.028Z,16.07
2018-05-03T22:31:32.154Z,16.01
2018-05-03T22:34:01.789Z,15.94
2018-05-03T22:36:31.441Z,15.87
2018-05-03T22:39:01.116Z,15.79
2018-05-03T22:41:30.475Z,15.68
2018-05-03T22:44:00.106Z,15.60
2018-05-03T22:46:29.747Z,15.50
2018-05-03T22:48:59.392Z,15.41
2018-05-03T22:51:29.029Z,15.34
2018-05-03T22:53:58.668Z,15.28
2018-05-03T22:56:28.345Z,15.23
2018-05-03T22:58:57.983Z,15.23
2018-05-03T23:01:28.624Z,15.22
2018-05-03T23:03:58.254Z,15.18
2018-05-03T23:06:27.878Z,15.15
2018-05-03T23:08:57.509Z,15.06
2018-05-03T23:11:27.167Z,15.01
2018-05-03T23:13:56.626Z,14.97
2018-05-03T23:16:26.249Z,14.94
2018-05-03T23:18:55.902Z,14.87
2018-05-03T23:21:25.519Z,14.81
2018-05-03T23:23:55.160Z,14.77
2018-05-03T23:26:24.790Z,14.68
2018-05-03T23:28:54.424Z,14.60
2018-05-03T23:31:24.100Z,14.57
2018-05-03T23:33:53.734Z,14.50
2018-05-03T23:36:23.999Z,14.45
2018-05-03T23:38:53.632Z,14.42
2018-05-03T23:41:23.271Z,14.39
2018-05-03T23:43:52.915Z,14.33
2018-05-03T23:46:22.545Z,14.27
2018-05-03T23:48:52.215Z,14.23
2018-05-03T23:51:21.840Z,14.23
2018-05-03T23:53:51.479Z,14.20
2018-05-03T23:56:21.120Z,14.18
2018-05-03T23:58:50.755Z,14.16
